Thursday, November 23, 2017, 4:31 AM EST
Back to Local

KACY, Atlantic City International

Location: Absecon, NJ, United States Lat: 39.467
Local Time: 4:31 AM EST ( 9:31 GMT) Lon: -74.583
Time Zone: US/Eastern Elev: 75 ft

Show me the last for .
Show Decoded

2017-11-23 03:54 METAR KACY 230854Z 28003KT 10SM CLR M01/M05 A3013 RMK AO2 SLP203 T10061050 51007
                 =
2017-11-23 02:54 METAR KACY 230754Z 30005KT 10SM CLR M01/M05 A3012 RMK AO2 SLP201 T10111050 =
2017-11-23 01:54 METAR KACY 230654Z 28003KT 10SM CLR 01/M04 A3012 RMK AO2 SLP197 T00111044 =
2017-11-23 00:54 METAR KACY 230554Z 00000KT 10SM CLR 01/M04 A3011 RMK AO2 SLP196 T00061039 10061
                 20006 50007 =
2017-11-22 23:54 METAR KACY 230454Z 33006KT 10SM CLR 02/M04 A3011 RMK AO2 SLP197 T00221039
                 401560022 =
2017-11-22 22:54 METAR KACY 230354Z 33011KT 10SM CLR 03/M03 A3009 RMK AO2 SLP190 T00331033 =
2017-11-22 21:54 METAR KACY 230254Z 33012KT 10SM CLR 04/M03 A3009 RMK AO2 SLP188 T00391028 53014
                 =
2017-11-22 20:54 METAR KACY 230154Z 32014KT 10SM CLR 05/M02 A3006 RMK AO2 SLP177 T00501022 =
2017-11-22 19:54 METAR KACY 230054Z 33011KT 10SM CLR 05/M01 A3005 RMK AO2 SLP176 T00501011 =
2017-11-22 18:54 METAR KACY 222354Z 33013KT 10SM FEW045 06/M01 A3005 RMK AO2 SLP174 T00611011
                 10150 20061 51034 =
2017-11-22 17:54 METAR KACY 222254Z 33016G23KT 10SM FEW046 07/M01 A3002 RMK AO2 SLP165 T00721011
                 =
2017-11-22 16:54 METAR KACY 222154Z 33017G28KT 10SM CLR 08/M01 A2999 RMK AO2 PK WND 33030/2100
                 SLP154 T00831006 =
2017-11-22 15:54 METAR KACY 222054Z 32019KT 10SM SCT055 10/02 A2995 RMK AO2 PK WND 33033/2043
                 SLP141 T01000022 53021 =
2017-11-22 14:54 METAR KACY 221954Z 32015G26KT 10SM BKN060 13/03 A2991 RMK AO2 PK WND 32027/1937
                 SLP129 T01280033 =
2017-11-22 13:54 METAR KACY 221854Z 33016G21KT 10SM SCT039 BKN049 15/07 A2989 RMK AO2 SLP121
                 T01500067 =
2017-11-22 12:54 METAR KACY 221754Z 33012G22KT 10SM FEW027 SCT036 SCT100 14/08 A2989 RMK AO2
                 SLP120 60018 T01390083 10144 20128 58004 =
2017-11-22 11:54 METAR KACY 221654Z 33012KT 10SM OVC085 13/11 A2989 RMK AO2 RAB27E53 SLP121 P0000
                 T01280106 =
2017-11-22 10:54 METAR KACY 221554Z 32011KT 10SM FEW013 OVC080 13/12 A2990 RMK AO2 SLP123
                 T01330117 =
2017-11-22 09:54 METAR KACY 221454Z 31009KT 10SM BKN080 OVC100 13/12 A2990 RMK AO2 RAB1358E16
                 SLP124 P0000 60018 T01280122 53001 =
2017-11-22 09:13 METAR KACY 221413Z 30008KT 10SM -RA SCT008 OVC080 13/13 A2989 RMK AO2 RAB1358
                 P0000 T01280128 =
2017-11-22 08:54 METAR KACY 221354Z 29007KT 10SM BKN008 BKN012 OVC080 13/13 A2990 RMK AO2 RAE37
                 CIG 003V009 SLP123 P0005 T01330128 =
2017-11-22 08:21 METAR KACY 221321Z 28004KT 9SM -RA BKN005 BKN045 OVC080 13/13 A2990 RMK AO2
                 P0005 T01330133 $ =
2017-11-22 08:04 METAR KACY 221304Z 28003KT 4SM -RA BR FEW006 BKN070 OVC085 13/13 A2989 RMK AO2
                 P0003 T01330133 $ =
2017-11-22 07:54 METAR KACY 221254Z 31005KT 2SM +RA BR FEW006 BKN050 OVC080 13/13 A2989 RMK AO2
                 SLP122 P0013 T01280128 $ =
2017-11-22 07:45 METAR KACY 221245Z 30007KT 2SM RA BR SCT006 BKN042 OVC050 13/13 A2990 RMK AO2
                 P0008 T01330128 $ =
2017-11-22 07:36 METAR KACY 221236Z 26005KT 2SM +RA BR SCT006 BKN029 OVC041 13/13 A2992 RMK AO2
                 P0005 T01330133 $ =
2017-11-22 07:30 METAR KACY 221230Z 24006KT 5SM RA BR FEW006 SCT029 OVC039 13/13 A2992 RMK AO2
                 P0002 T01330133 $ =
2017-11-22 06:54 METAR KACY 221154Z 18005KT 10SM -RA OVC085 13/13 A2990 RMK AO2 RAB1055 SLP123
                 P0007 60032 70032 T01330128 10156 20122 56017 $ =
2017-11-22 05:54 METAR KACY 221054Z 18003KT 10SM OVC080 13/12 A2991 RMK AO2 RAE42 SLP128 P0003
                 T01280122 $ =
2017-11-22 04:54 METAR KACY 220954Z 20007KT 9SM -RA OVC080 13/13 A2992 RMK AO2 SLP132 P0006
                 T01280128 $ =

Support USWX by starting your Amazon purchase here.